createdAt,value
2023-04-01T00:09:06.299Z,10.80
2023-04-01T00:11:35.180Z,10.50
2023-04-01T00:23:58.932Z,10.40
2023-04-01T00:33:54.435Z,10.30
2023-04-01T00:36:24.363Z,10.40
2023-04-01T00:41:23.050Z,10.30
2023-04-01T00:43:54.301Z,10.40
2023-04-01T00:46:22.615Z,10.00
2023-04-01T00:48:57.522Z,9.90
2023-04-01T00:51:31.905Z,10.70
2023-04-01T00:54:04.997Z,10.50
2023-04-01T00:56:49.709Z,10.30
2023-04-01T00:59:26.371Z,10.10
2023-04-01T01:01:54.826Z,10.00
2023-04-01T01:04:33.435Z,10.30
2023-04-01T01:07:29.805Z,10.50
2023-04-01T01:10:15.392Z,10.30
2023-04-01T01:13:17.575Z,10.10
2023-04-01T01:16:00.408Z,10.70
2023-04-01T01:19:17.468Z,10.30
2023-04-01T01:22:36.431Z,10.30
2023-04-01T01:25:21.574Z,9.60
2023-04-01T01:28:37.714Z,10.00
2023-04-01T01:34:17.778Z,10.00
2023-04-01T01:36:48.364Z,10.70
2023-04-01T01:39:17.048Z,10.60
2023-04-01T01:41:48.014Z,10.30
2023-04-01T01:44:18.612Z,10.10
2023-04-01T01:46:48.279Z,10.30
2023-04-01T01:49:18.711Z,10.20
2023-04-01T01:51:46.864Z,10.50
2023-04-01T01:54:24.273Z,10.30
2023-04-01T01:57:11.502Z,10.80
2023-04-01T01:59:42.589Z,10.30
2023-04-01T02:02:15.434Z,9.50
2023-04-01T02:04:46.744Z,10.30
2023-04-01T02:07:33.136Z,10.30
2023-04-01T02:10:02.224Z,9.90
2023-04-01T02:12:32.508Z,10.30
2023-04-01T02:15:15.414Z,9.70
2023-04-01T02:17:48.197Z,10.30
2023-04-01T02:20:25.573Z,10.60
2023-04-01T02:22:57.036Z,9.40
2023-04-01T02:25:32.982Z,10.80
2023-04-01T02:28:02.340Z,10.40
2023-04-01T02:30:34.242Z,10.40
2023-04-01T02:33:02.905Z,10.10
2023-04-01T02:35:36.032Z,8.90
2023-04-01T02:38:04.658Z,10.10
2023-04-01T02:40:49.554Z,10.40
2023-04-01T02:43:21.963Z,10.40
2023-04-01T02:48:18.855Z,10.20
2023-04-01T02:50:47.142Z,11.00
2023-04-01T02:53:15.631Z,10.60
2023-04-01T02:55:44.094Z,10.20
2023-04-01T03:00:42.123Z,10.10
2023-04-01T03:03:14.639Z,10.50
2023-04-01T03:10:41.006Z,10.60
2023-04-01T03:13:09.263Z,10.30
2023-04-01T03:15:37.381Z,10.60
2023-04-01T03:20:34.277Z,10.20
2023-04-01T03:23:02.410Z,10.70
2023-04-01T03:28:00.811Z,11.00
2023-04-01T03:30:31.085Z,10.50
2023-04-01T03:33:00.770Z,10.30
2023-04-01T03:35:29.617Z,10.30
2023-04-01T03:40:27.342Z,10.30
2023-04-01T03:42:57.127Z,9.80
2023-04-01T03:50:22.447Z,10.80
2023-04-01T04:02:47.277Z,10.60
2023-04-01T04:05:16.272Z,9.90
2023-04-01T04:07:44.367Z,9.90
2023-04-01T04:12:41.494Z,9.80
2023-04-01T04:15:11.499Z,10.20
2023-04-01T04:17:39.740Z,9.90
2023-04-01T04:20:09.044Z,10.20
2023-04-01T04:22:40.316Z,10.10
2023-04-01T04:30:08.777Z,10.30
2023-04-01T04:32:37.172Z,9.70
2023-04-01T04:37:35.673Z,10.50
2023-04-01T04:45:03.528Z,10.00
2023-04-01T04:47:31.696Z,9.90
2023-04-01T04:49:59.828Z,10.00
2023-04-01T04:57:24.963Z,10.60
2023-04-01T04:59:53.061Z,9.80
2023-04-01T05:02:21.350Z,10.20
2023-04-01T05:04:52.736Z,10.60
2023-04-01T05:12:18.235Z,10.10
2023-04-01T05:14:49.505Z,10.10
2023-04-01T05:19:46.126Z,10.20
2023-04-01T05:22:14.296Z,10.30
2023-04-01T05:27:19.579Z,10.30
2023-04-01T05:34:45.447Z,10.30
2023-04-01T05:42:16.801Z,10.80
2023-04-01T05:49:47.273Z,11.20
2023-04-01T05:54:45.876Z,10.60
2023-04-01T05:57:16.962Z,10.30
2023-04-01T06:02:16.395Z,10.90
2023-04-01T06:04:44.668Z,10.20
2023-04-01T06:07:21.010Z,10.90
2023-04-01T06:12:45.350Z,10.30
2023-04-01T06:15:39.582Z,10.80
2023-04-01T06:18:32.467Z,10.80
2023-04-01T06:21:10.753Z,10.80
2023-04-01T06:24:21.124Z,10.90
2023-04-01T06:27:19.958Z,10.80
2023-04-01T06:30:45.804Z,10.90
2023-04-01T06:34:00.127Z,10.70
2023-04-01T06:36:58.955Z,11.00
2023-04-01T06:39:38.417Z,11.10
2023-04-01T06:45:18.498Z,11.10
2023-04-01T06:48:01.892Z,11.10
2023-04-01T06:50:44.862Z,11.20
2023-04-01T06:53:32.104Z,11.20
2023-04-01T06:56:08.602Z,11.20
2023-04-01T06:58:52.281Z,11.70
2023-04-01T07:01:28.609Z,11.30
2023-04-01T07:04:04.255Z,11.30
2023-04-01T07:06:48.537Z,10.80
2023-04-01T07:09:44.190Z,12.00
2023-04-01T07:12:57.228Z,11.50
2023-04-01T07:15:35.153Z,11.90
2023-04-01T07:18:23.757Z,11.80
2023-04-01T07:20:54.174Z,11.80
2023-04-01T07:23:30.999Z,11.10
2023-04-01T07:26:09.186Z,12.50
2023-04-01T07:28:37.295Z,12.10
2023-04-01T07:31:31.541Z,12.50
2023-04-01T07:36:58.380Z,12.70
2023-04-01T07:42:19.270Z,12.50
2023-04-01T07:45:26.695Z,12.10
2023-04-01T07:48:06.942Z,12.10
2023-04-01T07:51:19.966Z,12.20
2023-04-01T07:54:51.160Z,12.40
2023-04-01T07:57:36.742Z,12.50
2023-04-01T08:00:49.368Z,13.20
2023-04-01T08:03:58.889Z,12.70
2023-04-01T08:06:47.736Z,13.20
2023-04-01T08:09:42.310Z,12.60
2023-04-01T08:15:11.219Z,12.70
2023-04-01T08:18:10.562Z,12.50
2023-04-01T08:21:16.782Z,12.50
2023-04-01T08:23:50.252Z,12.50
2023-04-01T08:26:42.267Z,12.50
2023-04-01T08:29:19.096Z,12.60
2023-04-01T08:32:04.325Z,13.10
2023-04-01T08:34:44.981Z,12.90
2023-04-01T08:37:26.752Z,13.40
2023-04-01T08:40:53.230Z,13.10
2023-04-01T08:44:04.399Z,13.60
2023-04-01T08:47:07.841Z,13.10
2023-04-01T08:50:09.211Z,13.30
2023-04-01T08:52:55.006Z,13.30
2023-04-01T08:56:09.326Z,12.80
2023-04-01T08:59:11.343Z,13.30
2023-04-01T09:02:05.763Z,13.00
2023-04-01T09:05:01.525Z,13.20
2023-04-01T09:07:53.349Z,13.00
2023-04-01T09:10:42.432Z,13.40
2023-04-01T09:13:13.297Z,13.20
2023-04-01T09:16:12.576Z,13.50
2023-04-01T09:19:27.216Z,13.60
2023-04-01T09:22:22.487Z,13.70
2023-04-01T09:25:25.667Z,13.70
2023-04-01T09:28:14.002Z,13.80
2023-04-01T09:31:25.904Z,13.50
2023-04-01T09:34:41.563Z,14.60
2023-04-01T09:37:37.084Z,13.90
2023-04-01T09:40:47.346Z,13.90
2023-04-01T09:43:47.584Z,13.80
2023-04-01T09:46:30.310Z,13.80
2023-04-01T09:49:35.128Z,14.40
2023-04-01T09:52:17.955Z,13.90
2023-04-01T09:55:06.752Z,13.50
2023-04-01T09:58:05.750Z,13.80
2023-04-01T10:00:56.934Z,13.80
2023-04-01T10:04:04.249Z,13.70
2023-04-01T10:06:53.870Z,13.20
2023-04-01T10:09:52.338Z,13.50
2023-04-01T10:15:19.248Z,13.70
2023-04-01T10:18:06.200Z,13.40
2023-04-01T10:20:46.367Z,12.90
2023-04-01T10:23:25.120Z,12.80
2023-04-01T10:26:50.260Z,12.90
2023-04-01T10:29:58.764Z,13.10
2023-04-01T10:32:48.428Z,13.10
2023-04-01T10:36:15.724Z,13.00
2023-04-01T10:39:05.538Z,12.70
2023-04-01T10:42:07.385Z,12.40
2023-04-01T10:44:59.900Z,12.90
2023-04-01T10:48:07.764Z,12.60
2023-04-01T10:51:18.854Z,12.90
2023-04-01T10:54:17.897Z,13.00
2023-04-01T10:57:30.764Z,12.80
2023-04-01T11:00:23.642Z,12.80
2023-04-01T11:03:29.112Z,11.50
2023-04-01T11:07:04.805Z,12.80
2023-04-01T11:10:06.657Z,12.60
2023-04-01T11:12:52.456Z,12.50
2023-04-01T11:18:22.908Z,12.40
2023-04-01T11:21:18.020Z,12.70
2023-04-01T11:24:06.104Z,12.80
2023-04-01T11:26:55.445Z,12.60
2023-04-01T11:29:59.763Z,13.60
2023-04-01T11:32:50.289Z,13.00
2023-04-01T11:35:46.483Z,12.80
2023-04-01T11:38:29.171Z,12.70
2023-04-01T11:41:29.991Z,13.50
2023-04-01T11:44:19.946Z,12.70
2023-04-01T11:47:16.787Z,11.90
2023-04-01T11:49:59.335Z,13.30
2023-04-01T11:52:54.876Z,14.20
2023-04-01T11:55:44.012Z,13.60
2023-04-01T11:58:59.278Z,13.30
2023-04-01T12:02:10.543Z,13.30
2023-04-01T12:05:15.082Z,13.60
2023-04-01T12:07:57.298Z,13.30
2023-04-01T12:10:53.158Z,13.10
2023-04-01T12:14:04.534Z,12.90
2023-04-01T12:16:51.517Z,12.80
2023-04-01T12:19:35.195Z,12.70
2023-04-01T12:25:28.111Z,13.20
2023-04-01T12:28:17.331Z,12.60
2023-04-01T12:30:50.983Z,12.60
2023-04-01T12:34:09.604Z,12.70
2023-04-01T12:36:54.320Z,12.70
2023-04-01T12:45:07.545Z,12.70
2023-04-01T12:50:54.404Z,12.70
2023-04-01T12:53:48.721Z,12.80
2023-04-01T12:56:44.300Z,12.50
2023-04-01T12:59:45.820Z,12.80
2023-04-01T13:02:53.368Z,13.00
2023-04-01T13:06:30.592Z,13.20
2023-04-01T13:09:18.178Z,12.80
2023-04-01T13:12:31.908Z,12.80
2023-04-01T13:15:23.519Z,13.70
2023-04-01T13:21:04.186Z,12.80
2023-04-01T13:24:09.056Z,12.80
2023-04-01T13:27:17.080Z,13.30
2023-04-01T13:30:03.098Z,13.30
2023-04-01T13:35:19.432Z,13.20
2023-04-01T13:38:40.329Z,13.30
2023-04-01T13:41:50.896Z,13.30
2023-04-01T13:45:02.529Z,12.50
2023-04-01T13:47:55.689Z,13.20
2023-04-01T13:50:47.737Z,13.10
2023-04-01T13:53:53.758Z,13.00
2023-04-01T13:56:45.441Z,13.50
2023-04-01T13:59:22.881Z,12.60
2023-04-01T14:02:56.886Z,13.00
2023-04-01T14:05:41.873Z,13.00
2023-04-01T14:08:44.718Z,13.00
2023-04-01T14:11:21.057Z,13.00
2023-04-01T14:14:13.824Z,12.40
2023-04-01T14:17:00.053Z,13.20
2023-04-01T14:20:04.844Z,13.30
2023-04-01T14:26:12.888Z,12.50
2023-04-01T14:29:14.535Z,12.40
2023-04-01T14:32:15.302Z,12.40
2023-04-01T14:35:14.693Z,13.00
2023-04-01T14:38:27.866Z,12.70
2023-04-01T14:41:21.614Z,12.70
2023-04-01T14:44:07.810Z,12.60
2023-04-01T14:46:41.460Z,12.50
2023-04-01T14:49:45.394Z,11.90
2023-04-01T14:52:29.417Z,12.50
2023-04-01T14:55:00.052Z,12.50
2023-04-01T14:57:30.989Z,12.30
2023-04-01T15:00:20.506Z,12.50
2023-04-01T15:03:30.121Z,12.50
2023-04-01T15:06:48.761Z,12.00
2023-04-01T15:09:53.931Z,12.90
2023-04-01T15:12:45.630Z,12.80
2023-04-01T15:15:39.231Z,12.50
2023-04-01T15:18:54.191Z,12.10
2023-04-01T15:21:48.063Z,12.40
2023-04-01T15:27:16.832Z,12.30
2023-04-01T15:30:22.550Z,12.70
2023-04-01T15:33:16.703Z,12.80
2023-04-01T15:36:12.567Z,12.30
2023-04-01T15:38:55.249Z,12.20
2023-04-01T15:45:04.055Z,12.20
2023-04-01T15:48:24.996Z,12.00
2023-04-01T15:51:05.864Z,12.00
2023-04-01T15:53:55.155Z,12.60
2023-04-01T15:57:02.493Z,12.00
2023-04-01T16:00:03.754Z,12.00
2023-04-01T16:02:48.469Z,11.80
2023-04-01T16:05:43.956Z,12.00
2023-04-01T16:08:25.004Z,12.10
2023-04-01T16:11:25.060Z,12.10
2023-04-01T16:17:08.482Z,12.50
2023-04-01T16:22:54.627Z,12.10
2023-04-01T16:25:43.454Z,12.10
2023-04-01T16:28:36.686Z,11.70
2023-04-01T16:31:07.806Z,12.10
2023-04-01T16:36:31.192Z,12.30
2023-04-01T16:39:32.219Z,12.20
2023-04-01T16:42:47.020Z,11.80
2023-04-01T16:45:45.847Z,12.00
2023-04-01T16:48:28.057Z,11.90
2023-04-01T16:51:15.648Z,12.00
2023-04-01T16:54:23.396Z,11.60
2023-04-01T16:57:11.824Z,12.00
2023-04-01T17:00:21.773Z,12.00
2023-04-01T17:03:31.298Z,12.00
2023-04-01T17:06:30.771Z,12.10
2023-04-01T17:09:31.058Z,11.90
2023-04-01T17:12:38.599Z,11.80
2023-04-01T17:15:36.008Z,11.40
2023-04-01T17:21:04.687Z,11.80
2023-04-01T17:23:50.829Z,11.80
2023-04-01T17:26:42.615Z,11.80
2023-04-01T17:32:42.834Z,11.60
2023-04-01T17:35:37.223Z,11.80
2023-04-01T17:41:14.530Z,11.70
2023-04-01T17:44:24.349Z,11.70
2023-04-01T17:47:44.411Z,11.70
2023-04-01T17:50:26.089Z,11.30
2023-04-01T17:53:19.890Z,11.60
2023-04-01T17:58:47.490Z,11.10
2023-04-01T18:01:39.791Z,11.40
2023-04-01T18:04:55.267Z,11.30
2023-04-01T18:07:55.748Z,11.00
2023-04-01T18:10:51.418Z,11.30
2023-04-01T18:13:56.480Z,11.50
2023-04-01T18:16:46.588Z,11.30
2023-04-01T18:19:45.469Z,11.30
2023-04-01T18:22:45.656Z,11.10
2023-04-01T18:25:41.880Z,11.30
2023-04-01T18:28:38.843Z,10.90
2023-04-01T18:31:51.867Z,10.60
2023-04-01T18:35:03.001Z,11.60
2023-04-01T18:37:37.275Z,10.60
2023-04-01T18:40:45.244Z,11.20
2023-04-01T18:43:57.282Z,10.80
2023-04-01T18:46:43.509Z,10.70
2023-04-01T18:52:29.862Z,11.20
2023-04-01T18:55:08.784Z,11.70
2023-04-01T18:57:50.531Z,11.00
2023-04-01T19:00:30.905Z,11.60
2023-04-01T19:03:18.632Z,11.40
2023-04-01T19:05:50.106Z,11.20
2023-04-01T19:08:31.351Z,11.20
2023-04-01T19:11:20.362Z,11.30
2023-04-01T19:14:06.228Z,10.50
2023-04-01T19:17:24.902Z,11.10
2023-04-01T19:20:35.505Z,11.10
2023-04-01T19:23:32.611Z,10.50
2023-04-01T19:26:30.342Z,11.60
2023-04-01T19:29:17.704Z,10.60
2023-04-01T19:32:06.951Z,10.90
2023-04-01T19:35:00.781Z,11.00
2023-04-01T19:37:56.898Z,8.30
2023-04-01T19:40:54.391Z,10.70
2023-04-01T19:44:07.556Z,7.50
2023-04-01T19:46:51.488Z,10.40
2023-04-01T19:49:50.094Z,10.70
2023-04-01T19:52:39.089Z,10.50
2023-04-01T19:55:32.231Z,10.40
2023-04-01T20:00:55.890Z,10.20
2023-04-01T20:03:59.733Z,10.20
2023-04-01T20:07:05.006Z,10.30
2023-04-01T20:10:19.149Z,10.20
2023-04-01T20:13:14.230Z,10.10
2023-04-01T20:15:47.204Z,10.00
2023-04-01T20:18:35.238Z,10.00
2023-04-01T20:21:18.554Z,9.90
2023-04-01T20:24:19.685Z,10.00
2023-04-01T20:27:27.548Z,9.80
2023-04-01T20:32:57.912Z,9.70
2023-04-01T20:38:36.729Z,9.60
2023-04-01T20:41:27.756Z,9.40
2023-04-01T20:44:27.954Z,9.30
2023-04-01T20:47:08.067Z,9.30
2023-04-01T20:50:26.271Z,9.30
2023-04-01T20:56:23.542Z,9.20
2023-04-01T20:59:24.785Z,8.70
2023-04-01T21:02:34.722Z,9.00
2023-04-01T21:05:48.004Z,8.80
2023-04-01T21:11:02.245Z,9.00
2023-04-01T21:13:56.085Z,9.40
2023-04-01T21:16:51.521Z,8.50
2023-04-01T21:20:15.955Z,8.80
2023-04-01T21:23:02.298Z,5.30
2023-04-01T21:25:43.339Z,8.60
2023-04-01T21:28:31.727Z,8.30
2023-04-01T21:31:46.984Z,8.70
2023-04-01T21:34:37.065Z,8.60
2023-04-01T21:37:49.095Z,9.00
2023-04-01T21:40:55.084Z,8.70
2023-04-01T21:44:04.255Z,8.70
2023-04-01T21:47:05.514Z,9.00
2023-04-01T21:50:17.360Z,8.50
2023-04-01T21:56:04.747Z,8.30
2023-04-01T21:59:26.985Z,8.30
2023-04-01T22:02:36.331Z,8.20
2023-04-01T22:05:22.108Z,8.00
2023-04-01T22:08:36.816Z,8.10
2023-04-01T22:14:07.705Z,8.30
2023-04-01T22:17:04.254Z,7.90
2023-04-01T22:22:37.019Z,7.90
2023-04-01T22:25:28.944Z,7.60
2023-04-01T22:28:01.747Z,7.80
2023-04-01T22:30:42.604Z,7.80
2023-04-01T22:33:14.997Z,7.80
2023-04-01T22:36:21.838Z,7.50
2023-04-01T22:41:56.009Z,7.30
2023-04-01T22:44:37.463Z,7.50
2023-04-01T22:47:16.102Z,7.40
2023-04-01T22:49:51.011Z,7.40
2023-04-01T22:52:49.254Z,7.30
2023-04-01T22:55:28.506Z,7.10
2023-04-01T22:58:02.719Z,7.00
2023-04-01T23:01:00.829Z,9.20
2023-04-01T23:03:35.684Z,7.00
2023-04-01T23:06:07.092Z,7.00
2023-04-01T23:09:11.731Z,7.00
2023-04-01T23:11:57.403Z,7.00
2023-04-01T23:17:19.956Z,6.90
2023-04-01T23:22:40.451Z,6.70
2023-04-01T23:25:39.199Z,6.80
2023-04-01T23:28:16.868Z,6.80
2023-04-01T23:33:22.167Z,6.70
2023-04-01T23:36:07.178Z,6.60
2023-04-01T23:38:44.295Z,6.50
2023-04-01T23:41:30.188Z,6.50
2023-04-01T23:44:05.312Z,6.40
2023-04-01T23:46:36.579Z,6.50
2023-04-01T23:49:06.251Z,6.30
2023-04-01T23:51:53.069Z,6.40
2023-04-01T23:54:44.195Z,6.40
2023-04-01T23:57:19.487Z,6.30
